sensor_id;sensor_type;location;lat;lon;timestamp;P1;durP1;ratioP1;P2;durP2;ratioP2
18899;SDS011;9582;52.018;6.306;2022-08-21T00:00:41;7.53;;;6.68;;
18899;SDS011;9582;52.018;6.306;2022-08-21T00:03:09;7.50;;;6.55;;
18899;SDS011;9582;52.018;6.306;2022-08-21T00:05:37;11.77;;;7.18;;
18899;SDS011;9582;52.018;6.306;2022-08-21T00:08:06;8.35;;;7.55;;
18899;SDS011;9582;52.018;6.306;2022-08-21T00:10:33;12.95;;;8.10;;
18899;SDS011;9582;52.018;6.306;2022-08-21T00:13:01;11.02;;;7.72;;
18899;SDS011;9582;52.018;6.306;2022-08-21T00:15:30;10.57;;;8.05;;
18899;SDS011;9582;52.018;6.306;2022-08-21T00:17:58;9.15;;;7.88;;
18899;SDS011;9582;52.018;6.306;2022-08-21T00:20:25;13.68;;;8.20;;
18899;SDS011;9582;52.018;6.306;2022-08-21T00:22:52;15.25;;;8.40;;
18899;SDS011;9582;52.018;6.306;2022-08-21T00:25:19;15.18;;;8.90;;
18899;SDS011;9582;52.018;6.306;2022-08-21T00:27:46;12.25;;;8.70;;
18899;SDS011;9582;52.018;6.306;2022-08-21T00:30:14;11.32;;;7.70;;
18899;SDS011;9582;52.018;6.306;2022-08-21T00:32:42;10.07;;;8.23;;
18899;SDS011;9582;52.018;6.306;2022-08-21T00:35:11;13.15;;;8.05;;
18899;SDS011;9582;52.018;6.306;2022-08-21T00:37:41;10.32;;;7.13;;
18899;SDS011;9582;52.018;6.306;2022-08-21T00:40:09;8.45;;;6.75;;
18899;SDS011;9582;52.018;6.306;2022-08-21T00:42:37;12.98;;;8.10;;
18899;SDS011;9582;52.018;6.306;2022-08-21T00:45:05;16.00;;;8.48;;
18899;SDS011;9582;52.018;6.306;2022-08-21T00:47:34;9.93;;;7.60;;
18899;SDS011;9582;52.018;6.306;2022-08-21T00:50:01;9.38;;;7.65;;
18899;SDS011;9582;52.018;6.306;2022-08-21T00:52:30;9.18;;;7.35;;
18899;SDS011;9582;52.018;6.306;2022-08-21T00:55:00;10.07;;;7.15;;
18899;SDS011;9582;52.018;6.306;2022-08-21T00:57:27;9.05;;;7.22;;
18899;SDS011;9582;52.018;6.306;2022-08-21T00:59:58;10.38;;;7.93;;
18899;SDS011;9582;52.018;6.306;2022-08-21T01:02:27;8.95;;;7.25;;
18899;SDS011;9582;52.018;6.306;2022-08-21T01:04:55;8.00;;;6.30;;
18899;SDS011;9582;52.018;6.306;2022-08-21T01:07:22;10.10;;;7.00;;
18899;SDS011;9582;52.018;6.306;2022-08-21T01:09:50;8.30;;;7.35;;
18899;SDS011;9582;52.018;6.306;2022-08-21T01:12:18;13.02;;;8.73;;
18899;SDS011;9582;52.018;6.306;2022-08-21T01:14:44;11.23;;;8.40;;
18899;SDS011;9582;52.018;6.306;2022-08-21T01:17:11;14.68;;;9.05;;
18899;SDS011;9582;52.018;6.306;2022-08-21T01:19:40;11.30;;;8.45;;
18899;SDS011;9582;52.018;6.306;2022-08-21T01:22:08;9.05;;;7.85;;
18899;SDS011;9582;52.018;6.306;2022-08-21T01:24:35;11.60;;;7.55;;
18899;SDS011;9582;52.018;6.306;2022-08-21T01:27:02;9.13;;;7.30;;
18899;SDS011;9582;52.018;6.306;2022-08-21T01:29:30;10.00;;;7.53;;
18899;SDS011;9582;52.018;6.306;2022-08-21T01:32:03;9.32;;;8.32;;
18899;SDS011;9582;52.018;6.306;2022-08-21T01:34:32;13.13;;;8.55;;
18899;SDS011;9582;52.018;6.306;2022-08-21T01:37:00;11.23;;;8.02;;
18899;SDS011;9582;52.018;6.306;2022-08-21T01:39:28;10.13;;;7.80;;
18899;SDS011;9582;52.018;6.306;2022-08-21T01:41:55;10.07;;;7.72;;
18899;SDS011;9582;52.018;6.306;2022-08-21T01:44:22;9.88;;;7.70;;
18899;SDS011;9582;52.018;6.306;2022-08-21T01:46:49;10.90;;;8.18;;
18899;SDS011;9582;52.018;6.306;2022-08-21T01:49:16;14.75;;;8.38;;
18899;SDS011;9582;52.018;6.306;2022-08-21T01:51:43;10.90;;;7.93;;
18899;SDS011;9582;52.018;6.306;2022-08-21T01:54:10;10.55;;;7.97;;
18899;SDS011;9582;52.018;6.306;2022-08-21T01:56:38;9.75;;;8.18;;
18899;SDS011;9582;52.018;6.306;2022-08-21T01:59:07;8.60;;;7.40;;
18899;SDS011;9582;52.018;6.306;2022-08-21T02:01:35;11.50;;;7.80;;
18899;SDS011;9582;52.018;6.306;2022-08-21T02:04:01;9.18;;;7.47;;
18899;SDS011;9582;52.018;6.306;2022-08-21T02:06:28;12.02;;;8.57;;
18899;SDS011;9582;52.018;6.306;2022-08-21T02:08:55;10.93;;;8.85;;
18899;SDS011;9582;52.018;6.306;2022-08-21T02:11:21;12.00;;;8.00;;
18899;SDS011;9582;52.018;6.306;2022-08-21T02:13:49;10.43;;;7.80;;
18899;SDS011;9582;52.018;6.306;2022-08-21T02:16:16;13.07;;;8.35;;
18899;SDS011;9582;52.018;6.306;2022-08-21T02:18:42;8.43;;;7.63;;
18899;SDS011;9582;52.018;6.306;2022-08-21T02:21:09;10.20;;;7.70;;
18899;SDS011;9582;52.018;6.306;2022-08-21T02:23:36;9.95;;;7.63;;
18899;SDS011;9582;52.018;6.306;2022-08-21T02:26:03;8.95;;;7.63;;
18899;SDS011;9582;52.018;6.306;2022-08-21T02:28:31;11.25;;;7.40;;
18899;SDS011;9582;52.018;6.306;2022-08-21T02:30:59;9.05;;;7.28;;
18899;SDS011;9582;52.018;6.306;2022-08-21T02:33:26;9.00;;;7.73;;
18899;SDS011;9582;52.018;6.306;2022-08-21T02:35:54;9.80;;;7.78;;
18899;SDS011;9582;52.018;6.306;2022-08-21T02:38:22;11.13;;;8.30;;
18899;SDS011;9582;52.018;6.306;2022-08-21T02:40:50;10.03;;;8.60;;
18899;SDS011;9582;52.018;6.306;2022-08-21T02:43:18;14.30;;;9.02;;
18899;SDS011;9582;52.018;6.306;2022-08-21T02:45:46;9.63;;;8.20;;
18899;SDS011;9582;52.018;6.306;2022-08-21T02:48:16;10.50;;;8.80;;
18899;SDS011;9582;52.018;6.306;2022-08-21T02:50:45;11.80;;;8.60;;
18899;SDS011;9582;52.018;6.306;2022-08-21T02:53:13;12.02;;;10.07;;
18899;SDS011;9582;52.018;6.306;2022-08-21T02:55:42;10.90;;;8.73;;
18899;SDS011;9582;52.018;6.306;2022-08-21T02:58:09;10.90;;;8.93;;
18899;SDS011;9582;52.018;6.306;2022-08-21T03:00:37;10.40;;;8.80;;
18899;SDS011;9582;52.018;6.306;2022-08-21T03:03:04;10.77;;;7.83;;
18899;SDS011;9582;52.018;6.306;2022-08-21T03:05:34;11.47;;;8.20;;
18899;SDS011;9582;52.018;6.306;2022-08-21T03:08:04;10.73;;;8.10;;
18899;SDS011;9582;52.018;6.306;2022-08-21T03:10:34;10.97;;;7.90;;
18899;SDS011;9582;52.018;6.306;2022-08-21T03:13:01;12.47;;;7.73;;
18899;SDS011;9582;52.018;6.306;2022-08-21T03:15:28;9.03;;;7.97;;
18899;SDS011;9582;52.018;6.306;2022-08-21T03:17:56;10.90;;;8.53;;
18899;SDS011;9582;52.018;6.306;2022-08-21T03:20:23;11.77;;;8.37;;
18899;SDS011;9582;52.018;6.306;2022-08-21T03:22:53;10.13;;;8.87;;
18899;SDS011;9582;52.018;6.306;2022-08-21T03:25:21;11.50;;;8.50;;
18899;SDS011;9582;52.018;6.306;2022-08-21T03:27:48;9.60;;;8.60;;
18899;SDS011;9582;52.018;6.306;2022-08-21T03:30:16;8.87;;;7.83;;
18899;SDS011;9582;52.018;6.306;2022-08-21T03:32:43;11.27;;;7.80;;
18899;SDS011;9582;52.018;6.306;2022-08-21T03:35:11;13.73;;;7.50;;
18899;SDS011;9582;52.018;6.306;2022-08-21T03:37:38;8.30;;;7.20;;
18899;SDS011;9582;52.018;6.306;2022-08-21T03:40:07;10.17;;;7.53;;
18899;SDS011;9582;52.018;6.306;2022-08-21T03:42:34;8.70;;;7.80;;
18899;SDS011;9582;52.018;6.306;2022-08-21T03:45:02;10.93;;;7.40;;
18899;SDS011;9582;52.018;6.306;2022-08-21T03:47:29;11.93;;;7.93;;
18899;SDS011;9582;52.018;6.306;2022-08-21T03:49:55;10.43;;;7.70;;
18899;SDS011;9582;52.018;6.306;2022-08-21T03:52:22;11.07;;;8.87;;
18899;SDS011;9582;52.018;6.306;2022-08-21T03:54:48;10.57;;;8.93;;
18899;SDS011;9582;52.018;6.306;2022-08-21T03:57:17;12.00;;;8.20;;
18899;SDS011;9582;52.018;6.306;2022-08-21T03:59:43;9.57;;;8.43;;
18899;SDS011;9582;52.018;6.306;2022-08-21T04:02:10;11.93;;;8.90;;
18899;SDS011;9582;52.018;6.306;2022-08-21T04:04:40;11.50;;;10.30;;
18899;SDS011;9582;52.018;6.306;2022-08-21T04:07:07;11.70;;;9.27;;
18899;SDS011;9582;52.018;6.306;2022-08-21T04:09:34;11.90;;;9.17;;
18899;SDS011;9582;52.018;6.306;2022-08-21T04:12:00;8.47;;;7.63;;
18899;SDS011;9582;52.018;6.306;2022-08-21T04:14:29;11.63;;;7.03;;
18899;SDS011;9582;52.018;6.306;2022-08-21T04:16:55;10.63;;;7.20;;
18899;SDS011;9582;52.018;6.306;2022-08-21T04:19:22;10.73;;;7.40;;
18899;SDS011;9582;52.018;6.306;2022-08-21T04:21:48;8.40;;;7.60;;
18899;SDS011;9582;52.018;6.306;2022-08-21T04:24:15;8.23;;;6.80;;
18899;SDS011;9582;52.018;6.306;2022-08-21T04:26:42;8.07;;;7.27;;
18899;SDS011;9582;52.018;6.306;2022-08-21T04:29:08;8.90;;;8.00;;
18899;SDS011;9582;52.018;6.306;2022-08-21T04:31:37;9.17;;;7.77;;
18899;SDS011;9582;52.018;6.306;2022-08-21T04:34:03;10.33;;;8.87;;
18899;SDS011;9582;52.018;6.306;2022-08-21T04:36:30;10.40;;;9.43;;
18899;SDS011;9582;52.018;6.306;2022-08-21T04:38:57;9.90;;;8.80;;
18899;SDS011;9582;52.018;6.306;2022-08-21T04:41:23;12.43;;;8.40;;
18899;SDS011;9582;52.018;6.306;2022-08-21T04:43:50;9.77;;;8.83;;
18899;SDS011;9582;52.018;6.306;2022-08-21T04:46:17;8.73;;;7.93;;
18899;SDS011;9582;52.018;6.306;2022-08-21T04:48:45;10.40;;;8.47;;
18899;SDS011;9582;52.018;6.306;2022-08-21T04:51:12;11.03;;;8.77;;
18899;SDS011;9582;52.018;6.306;2022-08-21T04:53:43;11.33;;;8.37;;
18899;SDS011;9582;52.018;6.306;2022-08-21T04:56:12;9.87;;;8.77;;
18899;SDS011;9582;52.018;6.306;2022-08-21T04:58:41;10.23;;;9.23;;
18899;SDS011;9582;52.018;6.306;2022-08-21T05:01:11;10.87;;;9.60;;
18899;SDS011;9582;52.018;6.306;2022-08-21T05:03:40;15.10;;;11.30;;
18899;SDS011;9582;52.018;6.306;2022-08-21T05:06:09;12.13;;;10.73;;
18899;SDS011;9582;52.018;6.306;2022-08-21T05:08:38;12.60;;;11.30;;
18899;SDS011;9582;52.018;6.306;2022-08-21T05:11:07;11.90;;;10.80;;
18899;SDS011;9582;52.018;6.306;2022-08-21T05:13:33;14.03;;;12.63;;
18899;SDS011;9582;52.018;6.306;2022-08-21T05:16:01;13.47;;;11.60;;
18899;SDS011;9582;52.018;6.306;2022-08-21T05:18:28;14.50;;;13.00;;
18899;SDS011;9582;52.018;6.306;2022-08-21T05:20:55;14.33;;;12.87;;
18899;SDS011;9582;52.018;6.306;2022-08-21T05:23:22;16.63;;;13.90;;
18899;SDS011;9582;52.018;6.306;2022-08-21T05:25:50;14.23;;;12.73;;
18899;SDS011;9582;52.018;6.306;2022-08-21T05:28:18;16.23;;;13.77;;
18899;SDS011;9582;52.018;6.306;2022-08-21T05:30:45;13.33;;;12.10;;
18899;SDS011;9582;52.018;6.306;2022-08-21T05:33:11;17.70;;;14.23;;
18899;SDS011;9582;52.018;6.306;2022-08-21T05:35:38;18.10;;;14.90;;
18899;SDS011;9582;52.018;6.306;2022-08-21T05:38:04;15.07;;;13.57;;
18899;SDS011;9582;52.018;6.306;2022-08-21T05:40:33;13.60;;;12.20;;
18899;SDS011;9582;52.018;6.306;2022-08-21T05:42:59;14.37;;;12.27;;
18899;SDS011;9582;52.018;6.306;2022-08-21T05:45:28;14.60;;;12.17;;
18899;SDS011;9582;52.018;6.306;2022-08-21T05:47:55;13.65;;;11.75;;
18899;SDS011;9582;52.018;6.306;2022-08-21T05:50:22;13.48;;;12.13;;
18899;SDS011;9582;52.018;6.306;2022-08-21T05:52:48;16.10;;;12.83;;
18899;SDS011;9582;52.018;6.306;2022-08-21T05:55:15;15.95;;;13.18;;
18899;SDS011;9582;52.018;6.306;2022-08-21T05:57:43;16.02;;;13.30;;
18899;SDS011;9582;52.018;6.306;2022-08-21T06:00:10;16.55;;;13.63;;
18899;SDS011;9582;52.018;6.306;2022-08-21T06:02:40;16.40;;;14.75;;
18899;SDS011;9582;52.018;6.306;2022-08-21T06:05:07;17.60;;;14.02;;
18899;SDS011;9582;52.018;6.306;2022-08-21T06:07:34;15.32;;;13.70;;
18899;SDS011;9582;52.018;6.306;2022-08-21T06:10:00;17.60;;;13.40;;
18899;SDS011;9582;52.018;6.306;2022-08-21T06:12:27;16.60;;;13.70;;
18899;SDS011;9582;52.018;6.306;2022-08-21T06:14:55;17.52;;;13.43;;
18899;SDS011;9582;52.018;6.306;2022-08-21T06:17:21;13.75;;;11.65;;
18899;SDS011;9582;52.018;6.306;2022-08-21T06:19:50;17.17;;;12.57;;
18899;SDS011;9582;52.018;6.306;2022-08-21T06:22:17;14.35;;;12.85;;
18899;SDS011;9582;52.018;6.306;2022-08-21T06:24:43;14.65;;;12.57;;
18899;SDS011;9582;52.018;6.306;2022-08-21T06:27:10;15.15;;;13.57;;
18899;SDS011;9582;52.018;6.306;2022-08-21T06:29:36;15.48;;;13.95;;
18899;SDS011;9582;52.018;6.306;2022-08-21T06:32:05;14.93;;;13.32;;
18899;SDS011;9582;52.018;6.306;2022-08-21T06:34:35;17.38;;;13.48;;
18899;SDS011;9582;52.018;6.306;2022-08-21T06:37:02;19.50;;;13.77;;
18899;SDS011;9582;52.018;6.306;2022-08-21T06:39:29;14.27;;;12.75;;
18899;SDS011;9582;52.018;6.306;2022-08-21T06:41:56;15.98;;;14.38;;
18899;SDS011;9582;52.018;6.306;2022-08-21T06:44:27;19.05;;;13.00;;
18899;SDS011;9582;52.018;6.306;2022-08-21T06:46:53;14.15;;;12.68;;
18899;SDS011;9582;52.018;6.306;2022-08-21T06:49:21;14.40;;;12.23;;
18899;SDS011;9582;52.018;6.306;2022-08-21T06:51:48;14.63;;;12.05;;
18899;SDS011;9582;52.018;6.306;2022-08-21T06:54:14;16.92;;;12.73;;
18899;SDS011;9582;52.018;6.306;2022-08-21T06:56:40;14.25;;;12.20;;
18899;SDS011;9582;52.018;6.306;2022-08-21T06:59:07;14.40;;;12.30;;
18899;SDS011;9582;52.018;6.306;2022-08-21T07:01:33;16.70;;;12.25;;
18899;SDS011;9582;52.018;6.306;2022-08-21T07:04:01;14.95;;;11.13;;
18899;SDS011;9582;52.018;6.306;2022-08-21T07:06:29;14.65;;;10.80;;
18899;SDS011;9582;52.018;6.306;2022-08-21T07:08:56;11.65;;;10.15;;
18899;SDS011;9582;52.018;6.306;2022-08-21T07:11:23;11.40;;;10.25;;
18899;SDS011;9582;52.018;6.306;2022-08-21T07:13:50;11.88;;;9.63;;
18899;SDS011;9582;52.018;6.306;2022-08-21T07:16:19;14.23;;;10.02;;
18899;SDS011;9582;52.018;6.306;2022-08-21T07:18:46;13.05;;;11.05;;
18899;SDS011;9582;52.018;6.306;2022-08-21T07:21:13;13.55;;;10.25;;
18899;SDS011;9582;52.018;6.306;2022-08-21T07:23:44;13.65;;;10.25;;
18899;SDS011;9582;52.018;6.306;2022-08-21T07:26:13;13.25;;;9.70;;
18899;SDS011;9582;52.018;6.306;2022-08-21T07:28:41;15.65;;;10.93;;
18899;SDS011;9582;52.018;6.306;2022-08-21T07:31:08;14.00;;;10.82;;
18899;SDS011;9582;52.018;6.306;2022-08-21T07:33:38;12.13;;;10.43;;
18899;SDS011;9582;52.018;6.306;2022-08-21T07:36:06;12.90;;;10.05;;
18899;SDS011;9582;52.018;6.306;2022-08-21T07:38:33;11.85;;;9.68;;
18899;SDS011;9582;52.018;6.306;2022-08-21T07:41:01;10.18;;;9.10;;
18899;SDS011;9582;52.018;6.306;2022-08-21T07:43:28;13.00;;;9.82;;
18899;SDS011;9582;52.018;6.306;2022-08-21T07:45:55;12.00;;;9.32;;
18899;SDS011;9582;52.018;6.306;2022-08-21T07:48:22;17.75;;;10.32;;
18899;SDS011;9582;52.018;6.306;2022-08-21T07:50:49;23.30;;;10.13;;
18899;SDS011;9582;52.018;6.306;2022-08-21T07:53:17;15.60;;;9.93;;
18899;SDS011;9582;52.018;6.306;2022-08-21T07:55:43;13.63;;;9.23;;
18899;SDS011;9582;52.018;6.306;2022-08-21T07:58:11;11.05;;;9.43;;
18899;SDS011;9582;52.018;6.306;2022-08-21T08:00:37;17.70;;;10.45;;
18899;SDS011;9582;52.018;6.306;2022-08-21T08:03:06;10.82;;;9.15;;
18899;SDS011;9582;52.018;6.306;2022-08-21T08:05:32;14.00;;;10.00;;
18899;SDS011;9582;52.018;6.306;2022-08-21T08:08:02;10.52;;;9.00;;
18899;SDS011;9582;52.018;6.306;2022-08-21T08:10:29;11.35;;;8.98;;
18899;SDS011;9582;52.018;6.306;2022-08-21T08:12:55;9.88;;;8.43;;
18899;SDS011;9582;52.018;6.306;2022-08-21T08:15:25;12.40;;;8.38;;
18899;SDS011;9582;52.018;6.306;2022-08-21T08:17:53;10.20;;;7.47;;
18899;SDS011;9582;52.018;6.306;2022-08-21T08:20:20;8.57;;;6.47;;
18899;SDS011;9582;52.018;6.306;2022-08-21T08:22:48;14.98;;;6.30;;
18899;SDS011;9582;52.018;6.306;2022-08-21T08:25:15;9.63;;;6.18;;
18899;SDS011;9582;52.018;6.306;2022-08-21T08:27:42;9.00;;;6.28;;
18899;SDS011;9582;52.018;6.306;2022-08-21T08:30:10;11.18;;;6.50;;
18899;SDS011;9582;52.018;6.306;2022-08-21T08:32:39;9.48;;;6.47;;
18899;SDS011;9582;52.018;6.306;2022-08-21T08:35:07;12.68;;;6.07;;
18899;SDS011;9582;52.018;6.306;2022-08-21T08:37:34;9.48;;;5.85;;
18899;SDS011;9582;52.018;6.306;2022-08-21T08:40:03;9.30;;;5.72;;
18899;SDS011;9582;52.018;6.306;2022-08-21T08:42:32;8.98;;;5.22;;
18899;SDS011;9582;52.018;6.306;2022-08-21T08:45:02;9.25;;;5.35;;
18899;SDS011;9582;52.018;6.306;2022-08-21T08:47:33;11.10;;;5.90;;
18899;SDS011;9582;52.018;6.306;2022-08-21T08:50:04;11.88;;;5.75;;
18899;SDS011;9582;52.018;6.306;2022-08-21T08:52:34;11.63;;;6.30;;
18899;SDS011;9582;52.018;6.306;2022-08-21T08:55:04;7.50;;;5.07;;
18899;SDS011;9582;52.018;6.306;2022-08-21T08:57:32;13.18;;;5.60;;
18899;SDS011;9582;52.018;6.306;2022-08-21T09:00:00;8.30;;;5.60;;
18899;SDS011;9582;52.018;6.306;2022-08-21T09:02:31;9.77;;;5.55;;
18899;SDS011;9582;52.018;6.306;2022-08-21T09:04:58;14.15;;;5.22;;
18899;SDS011;9582;52.018;6.306;2022-08-21T09:07:31;12.27;;;5.90;;
18899;SDS011;9582;52.018;6.306;2022-08-21T09:10:10;11.07;;;4.82;;
18899;SDS011;9582;52.018;6.306;2022-08-21T09:12:45;9.15;;;5.50;;
18899;SDS011;9582;52.018;6.306;2022-08-21T09:15:24;9.27;;;5.05;;
18899;SDS011;9582;52.018;6.306;2022-08-21T09:18:03;9.48;;;5.10;;
18899;SDS011;9582;52.018;6.306;2022-08-21T09:20:54;12.77;;;5.22;;
18899;SDS011;9582;52.018;6.306;2022-08-21T09:23:36;9.30;;;5.30;;
18899;SDS011;9582;52.018;6.306;2022-08-21T09:26:11;9.85;;;5.63;;
18899;SDS011;9582;52.018;6.306;2022-08-21T09:28:40;8.80;;;4.72;;
18899;SDS011;9582;52.018;6.306;2022-08-21T09:31:08;8.68;;;4.70;;
18899;SDS011;9582;52.018;6.306;2022-08-21T09:33:46;11.35;;;5.85;;
18899;SDS011;9582;52.018;6.306;2022-08-21T09:36:13;9.13;;;4.65;;
18899;SDS011;9582;52.018;6.306;2022-08-21T09:38:53;11.13;;;5.00;;
18899;SDS011;9582;52.018;6.306;2022-08-21T09:41:25;9.35;;;4.75;;
18899;SDS011;9582;52.018;6.306;2022-08-21T09:43:53;9.88;;;4.57;;
18899;SDS011;9582;52.018;6.306;2022-08-21T09:46:21;9.23;;;4.47;;
18899;SDS011;9582;52.018;6.306;2022-08-21T09:48:49;8.52;;;4.28;;
18899;SDS011;9582;52.018;6.306;2022-08-21T09:51:19;12.85;;;4.78;;
18899;SDS011;9582;52.018;6.306;2022-08-21T09:53:48;10.50;;;4.57;;
18899;SDS011;9582;52.018;6.306;2022-08-21T09:56:20;9.27;;;4.88;;
18899;SDS011;9582;52.018;6.306;2022-08-21T09:59:16;8.57;;;4.47;;
18899;SDS011;9582;52.018;6.306;2022-08-21T10:01:46;9.90;;;4.20;;
18899;SDS011;9582;52.018;6.306;2022-08-21T10:04:15;11.10;;;3.83;;
18899;SDS011;9582;52.018;6.306;2022-08-21T10:06:46;7.50;;;3.97;;
18899;SDS011;9582;52.018;6.306;2022-08-21T10:09:13;8.02;;;3.67;;
18899;SDS011;9582;52.018;6.306;2022-08-21T10:11:44;9.90;;;3.55;;
18899;SDS011;9582;52.018;6.306;2022-08-21T10:14:17;8.85;;;3.65;;
18899;SDS011;9582;52.018;6.306;2022-08-21T10:16:55;6.03;;;3.10;;
18899;SDS011;9582;52.018;6.306;2022-08-21T10:19:32;9.57;;;3.90;;
18899;SDS011;9582;52.018;6.306;2022-08-21T10:22:08;7.65;;;3.47;;
18899;SDS011;9582;52.018;6.306;2022-08-21T10:24:44;5.28;;;2.38;;
18899;SDS011;9582;52.018;6.306;2022-08-21T10:27:25;7.57;;;2.75;;
18899;SDS011;9582;52.018;6.306;2022-08-21T10:30:04;5.13;;;2.60;;
18899;SDS011;9582;52.018;6.306;2022-08-21T10:32:44;6.25;;;2.65;;
18899;SDS011;9582;52.018;6.306;2022-08-21T10:35:29;6.25;;;2.55;;
18899;SDS011;9582;52.018;6.306;2022-08-21T10:41:06;8.40;;;2.88;;
18899;SDS011;9582;52.018;6.306;2022-08-21T10:43:42;5.13;;;2.53;;
18899;SDS011;9582;52.018;6.306;2022-08-21T10:46:26;9.13;;;3.00;;
18899;SDS011;9582;52.018;6.306;2022-08-21T10:49:05;7.30;;;2.70;;
18899;SDS011;9582;52.018;6.306;2022-08-21T10:51:40;7.20;;;2.40;;
18899;SDS011;9582;52.018;6.306;2022-08-21T10:54:15;5.45;;;1.92;;
18899;SDS011;9582;52.018;6.306;2022-08-21T10:56:48;4.18;;;1.98;;
18899;SDS011;9582;52.018;6.306;2022-08-21T10:59:25;8.52;;;2.60;;
18899;SDS011;9582;52.018;6.306;2022-08-21T11:01:55;7.47;;;2.15;;
18899;SDS011;9582;52.018;6.306;2022-08-21T11:04:28;6.65;;;2.13;;
18899;SDS011;9582;52.018;6.306;2022-08-21T11:07:05;6.22;;;2.17;;
18899;SDS011;9582;52.018;6.306;2022-08-21T11:09:38;6.35;;;2.40;;
18899;SDS011;9582;52.018;6.306;2022-08-21T11:12:10;9.10;;;2.17;;
18899;SDS011;9582;52.018;6.306;2022-08-21T11:14:47;6.10;;;2.45;;
18899;SDS011;9582;52.018;6.306;2022-08-21T11:17:18;7.00;;;2.33;;
18899;SDS011;9582;52.018;6.306;2022-08-21T11:19:49;6.95;;;2.40;;
18899;SDS011;9582;52.018;6.306;2022-08-21T11:22:21;7.82;;;2.40;;
18899;SDS011;9582;52.018;6.306;2022-08-21T11:24:54;6.38;;;2.20;;
18899;SDS011;9582;52.018;6.306;2022-08-21T11:27:36;6.57;;;2.45;;
18899;SDS011;9582;52.018;6.306;2022-08-21T11:30:08;4.57;;;2.20;;
18899;SDS011;9582;52.018;6.306;2022-08-21T11:32:44;8.00;;;2.30;;
18899;SDS011;9582;52.018;6.306;2022-08-21T11:35:26;5.82;;;2.08;;
18899;SDS011;9582;52.018;6.306;2022-08-21T11:38:03;5.60;;;2.10;;
18899;SDS011;9582;52.018;6.306;2022-08-21T11:40:48;7.00;;;2.50;;
18899;SDS011;9582;52.018;6.306;2022-08-21T11:43:25;3.97;;;1.92;;
18899;SDS011;9582;52.018;6.306;2022-08-21T11:46:06;6.55;;;2.10;;
18899;SDS011;9582;52.018;6.306;2022-08-21T11:48:40;7.28;;;2.42;;
18899;SDS011;9582;52.018;6.306;2022-08-21T11:51:16;5.60;;;2.38;;
18899;SDS011;9582;52.018;6.306;2022-08-21T11:53:47;5.75;;;2.22;;
18899;SDS011;9582;52.018;6.306;2022-08-21T11:56:20;7.20;;;2.67;;
18899;SDS011;9582;52.018;6.306;2022-08-21T11:58:52;5.03;;;2.05;;
18899;SDS011;9582;52.018;6.306;2022-08-21T12:01:25;4.03;;;1.80;;
18899;SDS011;9582;52.018;6.306;2022-08-21T12:03:58;5.38;;;1.90;;
18899;SDS011;9582;52.018;6.306;2022-08-21T12:06:28;7.20;;;2.17;;
18899;SDS011;9582;52.018;6.306;2022-08-21T12:08:58;6.43;;;2.00;;
18899;SDS011;9582;52.018;6.306;2022-08-21T12:11:27;5.05;;;1.88;;
18899;SDS011;9582;52.018;6.306;2022-08-21T12:13:54;5.75;;;2.05;;
18899;SDS011;9582;52.018;6.306;2022-08-21T12:16:30;4.95;;;2.03;;
18899;SDS011;9582;52.018;6.306;2022-08-21T12:19:05;6.15;;;1.83;;
18899;SDS011;9582;52.018;6.306;2022-08-21T12:21:33;6.70;;;2.50;;
18899;SDS011;9582;52.018;6.306;2022-08-21T12:24:16;5.50;;;1.52;;
18899;SDS011;9582;52.018;6.306;2022-08-21T12:26:50;7.30;;;1.67;;
18899;SDS011;9582;52.018;6.306;2022-08-21T12:29:22;6.70;;;2.08;;
18899;SDS011;9582;52.018;6.306;2022-08-21T12:31:57;5.43;;;1.50;;
18899;SDS011;9582;52.018;6.306;2022-08-21T12:34:34;6.32;;;1.80;;
18899;SDS011;9582;52.018;6.306;2022-08-21T12:37:04;5.45;;;1.70;;
18899;SDS011;9582;52.018;6.306;2022-08-21T12:39:42;6.57;;;1.73;;
18899;SDS011;9582;52.018;6.306;2022-08-21T12:42:15;4.55;;;1.88;;
18899;SDS011;9582;52.018;6.306;2022-08-21T12:44:45;3.65;;;1.60;;
18899;SDS011;9582;52.018;6.306;2022-08-21T12:47:21;7.13;;;2.00;;
18899;SDS011;9582;52.018;6.306;2022-08-21T12:49:54;4.57;;;1.92;;
18899;SDS011;9582;52.018;6.306;2022-08-21T12:52:29;6.88;;;1.90;;
18899;SDS011;9582;52.018;6.306;2022-08-21T12:55:01;4.90;;;1.73;;
18899;SDS011;9582;52.018;6.306;2022-08-21T12:57:29;5.70;;;1.80;;
18899;SDS011;9582;52.018;6.306;2022-08-21T12:59:57;4.95;;;2.00;;
18899;SDS011;9582;52.018;6.306;2022-08-21T13:02:28;5.38;;;1.65;;
18899;SDS011;9582;52.018;6.306;2022-08-21T13:04:56;4.75;;;1.70;;
18899;SDS011;9582;52.018;6.306;2022-08-21T13:07:26;5.95;;;1.90;;
18899;SDS011;9582;52.018;6.306;2022-08-21T13:09:55;4.13;;;1.52;;
18899;SDS011;9582;52.018;6.306;2022-08-21T13:12:26;7.28;;;1.90;;
18899;SDS011;9582;52.018;6.306;2022-08-21T13:14:55;3.65;;;2.00;;
18899;SDS011;9582;52.018;6.306;2022-08-21T13:17:23;6.18;;;1.88;;
18899;SDS011;9582;52.018;6.306;2022-08-21T13:19:56;7.25;;;2.00;;
18899;SDS011;9582;52.018;6.306;2022-08-21T13:22:24;7.90;;;1.88;;
18899;SDS011;9582;52.018;6.306;2022-08-21T13:24:52;5.43;;;1.75;;
18899;SDS011;9582;52.018;6.306;2022-08-21T13:27:20;4.07;;;1.73;;
18899;SDS011;9582;52.018;6.306;2022-08-21T13:29:59;3.58;;;1.40;;
18899;SDS011;9582;52.018;6.306;2022-08-21T13:32:28;6.60;;;1.52;;
18899;SDS011;9582;52.018;6.306;2022-08-21T13:35:00;4.80;;;1.58;;
18899;SDS011;9582;52.018;6.306;2022-08-21T13:37:35;3.25;;;1.40;;
18899;SDS011;9582;52.018;6.306;2022-08-21T13:40:06;3.85;;;1.67;;
18899;SDS011;9582;52.018;6.306;2022-08-21T13:42:34;3.67;;;1.52;;
18899;SDS011;9582;52.018;6.306;2022-08-21T13:45:00;4.70;;;1.30;;
18899;SDS011;9582;52.018;6.306;2022-08-21T13:47:27;4.47;;;1.52;;
18899;SDS011;9582;52.018;6.306;2022-08-21T13:49:53;3.72;;;1.50;;
18899;SDS011;9582;52.018;6.306;2022-08-21T13:52:23;3.78;;;1.70;;
18899;SDS011;9582;52.018;6.306;2022-08-21T13:54:52;3.95;;;1.48;;
18899;SDS011;9582;52.018;6.306;2022-08-21T13:57:24;4.65;;;1.70;;
18899;SDS011;9582;52.018;6.306;2022-08-21T13:59:53;4.97;;;1.80;;
18899;SDS011;9582;52.018;6.306;2022-08-21T14:02:38;4.57;;;1.73;;
18899;SDS011;9582;52.018;6.306;2022-08-21T14:05:06;4.45;;;2.00;;
18899;SDS011;9582;52.018;6.306;2022-08-21T14:07:41;7.00;;;1.70;;
18899;SDS011;9582;52.018;6.306;2022-08-21T14:10:11;3.92;;;1.73;;
18899;SDS011;9582;52.018;6.306;2022-08-21T14:12:41;5.97;;;1.55;;
18899;SDS011;9582;52.018;6.306;2022-08-21T14:15:09;3.70;;;1.55;;
18899;SDS011;9582;52.018;6.306;2022-08-21T14:17:40;3.90;;;1.45;;
18899;SDS011;9582;52.018;6.306;2022-08-21T14:20:08;3.53;;;1.60;;
18899;SDS011;9582;52.018;6.306;2022-08-21T14:22:37;4.45;;;1.75;;
18899;SDS011;9582;52.018;6.306;2022-08-21T14:25:08;3.78;;;1.52;;
18899;SDS011;9582;52.018;6.306;2022-08-21T14:27:39;3.58;;;1.52;;
18899;SDS011;9582;52.018;6.306;2022-08-21T14:30:11;4.05;;;1.77;;
18899;SDS011;9582;52.018;6.306;2022-08-21T14:32:42;4.28;;;1.70;;
18899;SDS011;9582;52.018;6.306;2022-08-21T14:35:09;5.03;;;1.58;;
18899;SDS011;9582;52.018;6.306;2022-08-21T14:37:36;4.22;;;1.40;;
18899;SDS011;9582;52.018;6.306;2022-08-21T14:40:03;3.17;;;1.20;;
18899;SDS011;9582;52.018;6.306;2022-08-21T14:42:32;4.43;;;1.50;;
18899;SDS011;9582;52.018;6.306;2022-08-21T14:45:00;3.88;;;1.30;;
18899;SDS011;9582;52.018;6.306;2022-08-21T14:47:31;4.50;;;1.40;;
18899;SDS011;9582;52.018;6.306;2022-08-21T14:49:58;4.85;;;1.60;;
18899;SDS011;9582;52.018;6.306;2022-08-21T14:52:24;3.58;;;1.30;;
18899;SDS011;9582;52.018;6.306;2022-08-21T14:54:51;3.42;;;1.35;;
18899;SDS011;9582;52.018;6.306;2022-08-21T14:57:17;5.53;;;1.50;;
18899;SDS011;9582;52.018;6.306;2022-08-21T14:59:45;3.70;;;1.50;;
18899;SDS011;9582;52.018;6.306;2022-08-21T15:02:12;4.07;;;1.48;;
18899;SDS011;9582;52.018;6.306;2022-08-21T15:04:38;3.63;;;1.50;;
18899;SDS011;9582;52.018;6.306;2022-08-21T15:07:06;3.60;;;1.45;;
18899;SDS011;9582;52.018;6.306;2022-08-21T15:09:33;3.53;;;1.60;;